Flight Track Log - Related Links

Times and Time Zones

All times are in EDT time to prevent confusion due to time zone crossing. See the WBR2623 flight status page for this flight to view local times or setup timezone preferences in your user account.

Time Position Orientation Groundspeed Altitude Reporting Facility
EDT Latitude Longitude Course Direction KTS MPH feet Rate Location/Type
09:33AM 41.9333 -87.9167 270° West 82 94 2,200  Level Chicago TRACON
09:34AM 41.9167 -87.9333 217° Southwest 83 96 3,200 900 Climbing Chicago TRACON
09:35AM 41.9000 -87.9667 236° Southwest 96 110 4,000 762 Climbing Chicago TRACON
09:36AM 41.8833 -88.0000 236° Southwest 118 136 4,800 714 Climbing Chicago TRACON
09:37AM 41.8667 -88.0333 236° Southwest 121 139 5,500 684 Climbing Chicago TRACON
09:38AM 41.9667 -88.1637 270° West  Level FlightAware Approximate
09:38AM 41.8500 -88.0667 236° Southwest 126 145 6,100  Level Chicago TRACON
09:39AM 41.8167 -88.1167 228° Southwest 151 174 6,100  Level Chicago TRACON
09:40AM 41.8167 -88.1833 270° West 163 188 6,100  Level Chicago TRACON
09:41AM 41.8167 -88.2333 270° West 165 190 6,100 -52 Level Chicago TRACON
09:42AM 41.8167 -88.2833 270° West 158 182 6,000 -50 Descending Chicago TRACON
09:43AM 41.8167 -88.3500 270° West 149 171 6,000 143 Level Chicago TRACON
09:44AM 41.8167 -88.4000 270° West 146 168 6,300 368 Climbing Chicago TRACON
09:45AM 41.8167 -88.4500 270° West 135 155 6,700 324 Climbing Chicago TRACON
09:45AM 41.8092 -88.4606 226° Southwest 138 159 6,700 366 Level Chicago Center
09:46AM 41.8078 -88.5094 268° West 134 154 7,200 484 Climbing Chicago Center
09:47AM 41.8064 -88.5600 268° West 135 155 7,700 387 Climbing Chicago Center
09:48AM 41.8067 -88.6200 270° West 136 157 8,000 145 Climbing Chicago Center
09:49AM 41.8069 -88.6758 270° West 150 173 8,000  Level Chicago Center
09:50AM 41.8053 -88.7328 268° West 153 176 8,000 -49 Level Chicago Center
09:51AM 41.8050 -88.7881 270° West 150 173 7,900 -49 Descending Chicago Center
09:52AM 41.8042 -88.8406 269° West 144 166 7,900 48 Level Chicago Center
09:53AM 41.7936 -88.8975 256° West 135 155 8,000 48 Climbing Chicago Center
09:54AM 41.7739 -88.9389 237° Southwest 134 154 8,000  Level Chicago Center
09:55AM 41.7550 -88.9817 239° Southwest 133 153 8,000  Level Chicago Center
09:56AM 41.7358 -89.0239 239° Southwest 134 154 8,000  Level Chicago Center
09:57AM 41.7161 -89.0647 237° Southwest 133 153 8,000 -48 Level Chicago Center
09:58AM 41.6931 -89.1172 240° Southwest 138 159 7,900  Descending Chicago Center
09:59AM 41.6742 -89.1603 240° Southwest 136 157 8,000 48 Climbing Chicago Center
10:00AM 41.6564 -89.2033 241° Southwest 133 153 8,000  Level Chicago Center
10:02AM 41.6369 -89.2456 238° Southwest 135 155 8,000  Level Chicago Center
10:03AM 41.6197 -89.2875 241° Southwest 131 151 8,000  Level Chicago Center
10:04AM 41.6017 -89.3303 241° Southwest 132 152 8,000  Level Chicago Center
10:05AM 41.5772 -89.3806 237° Southwest 134 154 8,000  Level Chicago Center
10:06AM 41.5553 -89.4247 236° Southwest 138 159 8,000  Level Chicago Center
10:07AM 41.5358 -89.4686 239° Southwest 139 160 8,000  Level Chicago Center
10:08AM 41.5167 -89.5139 241° Southwest 140 161 8,000 -48 Level Chicago Center
10:09AM 41.4956 -89.5578 237° Southwest 141 162 7,900  Descending Chicago Center
10:10AM 41.4753 -89.6025 239° Southwest 141 162 8,000 48 Climbing Chicago Center
10:11AM 41.4492 -89.6558 237° Southwest 143 165 8,000  Level Chicago Center
10:12AM 41.4286 -89.7006 239° Southwest 143 165 8,000  Level Chicago Center
10:13AM 41.4083 -89.7478 240° Southwest 145 167 8,000  Level Chicago Center
10:14AM 41.3867 -89.7931 237° Southwest 146 168 8,000  Level Chicago Center
10:15AM 41.3642 -89.8383 237° Southwest 146 168 8,000  Level Chicago Center
10:16AM 41.3450 -89.8864 242° Southwest 148 170 8,000  Level Chicago Center
10:17AM 41.3206 -89.9436 240° Southwest 148 170 8,000  Level Chicago Center
10:18AM 41.2997 -89.9903 239° Southwest 147 169 8,000  Level Chicago Center
10:19AM 41.2800 -90.0347 239° Southwest 143 165 8,000  Level Chicago Center
10:20AM 41.2594 -90.0828 240° Southwest 147 169 8,000  Level Chicago Center
10:21AM 41.2394 -90.1289 240° Southwest 145 167 8,000  Level Chicago Center
10:22AM 41.2189 -90.1747 239° Southwest 145 167 8,000  Level Chicago Center
10:23AM 41.1967 -90.2281 241° Southwest 140 161 8,000  Level Chicago Center
10:24AM 41.1747 -90.2728 237° Southwest 143 165 8,000  Level Chicago Center
10:25AM 41.1525 -90.3175 237° Southwest 144 166 8,000  Level Chicago Center
10:26AM 41.1325 -90.3639 240° Southwest 146 168 8,000  Level Chicago Center
10:27AM 41.1108 -90.4086 237° Southwest 144 166 8,000  Level Chicago Center
10:28AM 41.0861 -90.4636 239° Southwest 144 166 8,000  Level Chicago Center
10:29AM 41.0656 -90.5092 239° Southwest 143 165 8,000  Level Chicago Center
10:30AM 41.0444 -90.5542 238° Southwest 144 166 8,000  Level Chicago Center
10:32AM 41.0242 -90.6022 241° Southwest 148 170 8,000 -97 Level Chicago Center
10:33AM 41.0053 -90.6492 242° Southwest 146 168 7,800 -290 Descending Chicago Center
10:34AM 40.9842 -90.6944 238° Southwest 145 167 7,400 -435 Descending Chicago Center
10:35AM 40.9564 -90.7506 237° Southwest 150 173 6,900 -532 Descending Chicago Center
10:36AM 40.9367 -90.7944 239° Southwest 146 168 6,300 -532 Descending Chicago Center
10:37AM 40.9158 -90.8397 239° Southwest 144 166 5,800 -576 Descending Chicago Center
10:38AM 40.8981 -90.8872 244° Southwest 144 166 5,100 -624 Descending Chicago Center
10:39AM 40.8831 -90.9347 247° West 144 166 4,500 -629 Descending Chicago Center
10:40AM 40.8706 -90.9803 250° West 139 160 3,800 -677 Descending Chicago Center
10:41AM 40.8531 -91.0319 246° West 133 153 3,100 -629 Descending Chicago Center
10:42AM 40.8361 -91.0725 241° Southwest 128 147 2,500 -290 Descending Chicago Center
10:43AM 40.8194 -91.1117 241° Southwest 128 147 2,500  Level Chicago Center

Login

Don't have an account? Register now (free) for customized features, flight alerts, and more!